Norwich, Connecticut
Current Conditions -  °F | °C
As of 6:56 PM on Tuesday 25 Nov 2014 (Local Time) from KGON Reporting Station
Clear Clear  
Wind Chill: 50°   Ceiling: Unl
Heat Index: 50°   Visibility: 9mi
Dew Point: 38°   Wind: 5mph
Humidity: 63%   Direction: 260°W
Pressure: 30.03"   Gusts: NA
Location:  41.53°N, 72.08°W
Report Text: KGON 252356Z 26004KT 9SM CLR 10/03 A3003 RMK AO2 SLP168 T01000033 10133 20094 51020
Loading
Personal Weather Stations






























Interactive Weather Map New forecast layout! Learn more

10-Day Weather Forecast

Advertisements
Track Severe Weather on mobile